This is the latest recevied weather packets stored in our database for station/object JM1YTT-13. If no packets are shown the sender has not sent any weather packets the latest 10 day(s).
| Time | Temp. | Humidity | Pressure | Rain* | Wind** | Luminosity | Snow |
|---|---|---|---|---|---|---|---|
| 1777912990 | 13.89° C | 49% | 1009.7 hPa | 0 mm | - | - | - |
| 1777911190 | 14.44° C | 48% | 1009.4 hPa | 0 mm | - | - | - |
| 1777909390 | 15° C | 48% | 1008.6 hPa | 0 mm | - | - | - |
| 1777907590 | 15° C | 50% | 1007.6 hPa | 0 mm | - | - | - |
| 1777905790 | 16.11° C | 50% | 1006.9 hPa | 0 mm | - | - | - |
| 1777903990 | 16.67° C | 49% | 1006.2 hPa | 0 mm | - | - | - |
| 1777902190 | 16.11° C | 58% | 1005.4 hPa | 0 mm | - | - | - |
| 1777900390 | 16.11° C | 78% | 1004.7 hPa | 0 mm | - | - | - |
| 1777898590 | 16.67° C | 78% | 1003.9 hPa | 0 mm | - | - | - |
| 1777896790 | 16.67° C | 76% | 1003.3 hPa | 0 mm | - | - | - |
| 1777894990 | 17.22° C | 75% | 1001.8 hPa | 0 mm | - | - | - |
| 1777893190 | 17.78° C | 74% | 1001.4 hPa | 0 mm | - | - | - |
| 1777891390 | 20° C | 65% | 999.9 hPa | 0 mm | - | - | - |
| 1777889590 | 20.56° C | 58% | 998.6 hPa | 0 mm | - | - | - |
| 1777887790 | 20.56° C | 58% | 997.6 hPa | 0 mm | - | - | - |
| 1777885990 | 21.67° C | 56% | 996.9 hPa | 0 mm | - | - | - |
| 1777884190 | 22.22° C | 52% | 996.2 hPa | 0 mm | - | - | - |
| 1777882390 | 22.78° C | 51% | 995.6 hPa | 0 mm | - | - | - |
| 1777880590 | 23.33° C | 51% | 994.4 hPa | 0 mm | - | - | - |
| 1777878790 | 23.89° C | 54% | 994 hPa | 0 mm | - | - | - |
| 1777876990 | 24.44° C | 54% | 993.4 hPa | 0 mm | - | - | - |
| 1777875190 | 25.56° C | 52% | 993.5 hPa | 0 mm | - | - | - |
| 1777873390 | 26.67° C | 48% | 993.4 hPa | 0 mm | - | - | - |
| 1777871590 | 27.22° C | 47% | 993.5 hPa | 0 mm | - | - | - |
| 1777869790 | 27.22° C | 49% | 993.5 hPa | 0 mm | - | - | - |
* Rain latest hour (hover to see other rain measurements)
** Current wind speed in m/s (hover to see current wind gust speed)